sensor_id;sensor_type;location;lat;lon;timestamp;P1;durP1;ratioP1;P2;durP2;ratioP2
49041;SDS011;34859;51.608;11.462;2023-11-21T00:01:19;15.40;;;5.17;;
49041;SDS011;34859;51.608;11.462;2023-11-21T00:04:03;10.60;;;5.33;;
49041;SDS011;34859;51.608;11.462;2023-11-21T00:06:47;12.68;;;5.60;;
49041;SDS011;34859;51.608;11.462;2023-11-21T00:09:32;13.27;;;5.28;;
49041;SDS011;34859;51.608;11.462;2023-11-21T00:12:17;11.88;;;7.38;;
49041;SDS011;34859;51.608;11.462;2023-11-21T00:15:01;127.57;;;67.82;;
49041;SDS011;34859;51.608;11.462;2023-11-21T00:17:48;125.85;;;66.25;;
49041;SDS011;34859;51.608;11.462;2023-11-21T00:20:33;64.38;;;33.20;;
49041;SDS011;34859;51.608;11.462;2023-11-21T00:23:17;25.50;;;12.68;;
49041;SDS011;34859;51.608;11.462;2023-11-21T00:26:01;13.93;;;7.97;;
49041;SDS011;34859;51.608;11.462;2023-11-21T00:28:47;17.75;;;7.53;;
49041;SDS011;34859;51.608;11.462;2023-11-21T00:31:31;20.73;;;13.40;;
49041;SDS011;34859;51.608;11.462;2023-11-21T00:34:16;30.73;;;21.20;;
49041;SDS011;34859;51.608;11.462;2023-11-21T00:37:00;19.38;;;11.23;;
49041;SDS011;34859;51.608;11.462;2023-11-21T00:39:44;11.63;;;8.00;;
49041;SDS011;34859;51.608;11.462;2023-11-21T00:42:28;17.52;;;8.18;;
49041;SDS011;34859;51.608;11.462;2023-11-21T00:45:12;15.63;;;8.57;;
49041;SDS011;34859;51.608;11.462;2023-11-21T00:47:56;12.57;;;6.00;;
49041;SDS011;34859;51.608;11.462;2023-11-21T00:53:26;13.07;;;7.88;;
49041;SDS011;34859;51.608;11.462;2023-11-21T00:56:10;16.43;;;6.80;;
49041;SDS011;34859;51.608;11.462;2023-11-21T00:58:54;17.10;;;7.65;;
49041;SDS011;34859;51.608;11.462;2023-11-21T01:01:38;21.52;;;11.60;;
49041;SDS011;34859;51.608;11.462;2023-11-21T01:04:23;18.67;;;10.65;;
49041;SDS011;34859;51.608;11.462;2023-11-21T01:07:07;15.60;;;9.48;;
49041;SDS011;34859;51.608;11.462;2023-11-21T01:09:52;11.45;;;6.82;;
49041;SDS011;34859;51.608;11.462;2023-11-21T01:12:36;11.18;;;7.30;;
49041;SDS011;34859;51.608;11.462;2023-11-21T01:15:18;16.65;;;7.93;;
49041;SDS011;34859;51.608;11.462;2023-11-21T01:18:02;13.63;;;6.97;;
49041;SDS011;34859;51.608;11.462;2023-11-21T01:20:47;16.60;;;6.53;;
49041;SDS011;34859;51.608;11.462;2023-11-21T01:23:32;10.10;;;6.45;;
49041;SDS011;34859;51.608;11.462;2023-11-21T01:26:16;12.95;;;7.22;;
49041;SDS011;34859;51.608;11.462;2023-11-21T01:29:01;17.93;;;7.10;;
49041;SDS011;34859;51.608;11.462;2023-11-21T01:31:45;15.00;;;5.80;;
49041;SDS011;34859;51.608;11.462;2023-11-21T01:34:29;14.40;;;6.13;;
49041;SDS011;34859;51.608;11.462;2023-11-21T01:39:58;13.30;;;5.90;;
49041;SDS011;34859;51.608;11.462;2023-11-21T01:42:45;12.52;;;6.63;;
49041;SDS011;34859;51.608;11.462;2023-11-21T01:45:30;11.00;;;6.32;;
49041;SDS011;34859;51.608;11.462;2023-11-21T01:48:17;11.73;;;6.15;;
49041;SDS011;34859;51.608;11.462;2023-11-21T01:51:01;10.57;;;6.05;;
49041;SDS011;34859;51.608;11.462;2023-11-21T01:53:46;10.00;;;5.72;;
49041;SDS011;34859;51.608;11.462;2023-11-21T01:56:31;8.32;;;5.95;;
49041;SDS011;34859;51.608;11.462;2023-11-21T02:02:08;14.60;;;5.70;;
49041;SDS011;34859;51.608;11.462;2023-11-21T02:07:37;13.10;;;5.95;;
49041;SDS011;34859;51.608;11.462;2023-11-21T02:10:22;13.38;;;5.88;;
49041;SDS011;34859;51.608;11.462;2023-11-21T02:13:06;10.97;;;6.03;;
49041;SDS011;34859;51.608;11.462;2023-11-21T02:15:50;14.27;;;5.72;;
49041;SDS011;34859;51.608;11.462;2023-11-21T02:18:36;11.20;;;5.85;;
49041;SDS011;34859;51.608;11.462;2023-11-21T02:21:21;10.20;;;6.00;;
49041;SDS011;34859;51.608;11.462;2023-11-21T02:24:07;15.07;;;5.50;;
49041;SDS011;34859;51.608;11.462;2023-11-21T02:26:51;8.52;;;6.00;;
49041;SDS011;34859;51.608;11.462;2023-11-21T02:29:36;11.73;;;6.00;;
49041;SDS011;34859;51.608;11.462;2023-11-21T02:32:22;25.23;;;6.63;;
49041;SDS011;34859;51.608;11.462;2023-11-21T02:35:06;12.90;;;6.40;;
49041;SDS011;34859;51.608;11.462;2023-11-21T02:37:51;8.68;;;5.40;;
49041;SDS011;34859;51.608;11.462;2023-11-21T02:40:36;10.35;;;5.45;;
49041;SDS011;34859;51.608;11.462;2023-11-21T02:43:20;11.00;;;4.90;;
49041;SDS011;34859;51.608;11.462;2023-11-21T02:46:04;11.02;;;5.47;;
49041;SDS011;34859;51.608;11.462;2023-11-21T02:48:48;14.40;;;5.93;;
49041;SDS011;34859;51.608;11.462;2023-11-21T02:51:34;9.85;;;5.32;;
49041;SDS011;34859;51.608;11.462;2023-11-21T02:54:18;14.70;;;5.50;;
49041;SDS011;34859;51.608;11.462;2023-11-21T02:57:02;12.20;;;5.28;;
49041;SDS011;34859;51.608;11.462;2023-11-21T02:59:47;6.78;;;4.90;;
49041;SDS011;34859;51.608;11.462;2023-11-21T03:02:29;10.98;;;5.47;;
49041;SDS011;34859;51.608;11.462;2023-11-21T03:05:13;14.02;;;5.18;;
49041;SDS011;34859;51.608;11.462;2023-11-21T03:07:57;6.95;;;5.07;;
49041;SDS011;34859;51.608;11.462;2023-11-21T03:10:41;11.73;;;5.03;;
49041;SDS011;34859;51.608;11.462;2023-11-21T03:13:25;7.90;;;4.83;;
49041;SDS011;34859;51.608;11.462;2023-11-21T03:16:10;12.68;;;5.55;;
49041;SDS011;34859;51.608;11.462;2023-11-21T03:18:55;14.90;;;5.45;;
49041;SDS011;34859;51.608;11.462;2023-11-21T03:21:39;9.83;;;4.67;;
49041;SDS011;34859;51.608;11.462;2023-11-21T03:24:23;11.40;;;4.82;;
49041;SDS011;34859;51.608;11.462;2023-11-21T03:27:07;10.32;;;6.43;;
49041;SDS011;34859;51.608;11.462;2023-11-21T03:29:52;10.00;;;6.13;;
49041;SDS011;34859;51.608;11.462;2023-11-21T03:32:38;13.57;;;5.53;;
49041;SDS011;34859;51.608;11.462;2023-11-21T03:35:22;13.27;;;5.50;;
49041;SDS011;34859;51.608;11.462;2023-11-21T03:38:07;7.55;;;5.25;;
49041;SDS011;34859;51.608;11.462;2023-11-21T03:40:53;11.13;;;5.55;;
49041;SDS011;34859;51.608;11.462;2023-11-21T03:43:38;8.82;;;5.78;;
49041;SDS011;34859;51.608;11.462;2023-11-21T03:46:21;5.57;;;5.00;;
49041;SDS011;34859;51.608;11.462;2023-11-21T03:49:06;8.17;;;4.97;;
49041;SDS011;34859;51.608;11.462;2023-11-21T03:51:51;12.20;;;5.28;;
49041;SDS011;34859;51.608;11.462;2023-11-21T03:54:35;11.50;;;5.80;;
49041;SDS011;34859;51.608;11.462;2023-11-21T03:57:20;10.68;;;5.35;;
49041;SDS011;34859;51.608;11.462;2023-11-21T04:00:04;10.57;;;5.03;;
49041;SDS011;34859;51.608;11.462;2023-11-21T04:02:52;11.68;;;5.10;;
49041;SDS011;34859;51.608;11.462;2023-11-21T04:05:37;10.00;;;4.75;;
49041;SDS011;34859;51.608;11.462;2023-11-21T04:08:21;9.80;;;4.60;;
49041;SDS011;34859;51.608;11.462;2023-11-21T04:11:05;11.65;;;5.53;;
49041;SDS011;34859;51.608;11.462;2023-11-21T04:13:49;18.30;;;5.70;;
49041;SDS011;34859;51.608;11.462;2023-11-21T04:16:33;12.60;;;5.60;;
49041;SDS011;34859;51.608;11.462;2023-11-21T04:19:18;14.73;;;6.03;;
49041;SDS011;34859;51.608;11.462;2023-11-21T04:22:01;8.88;;;5.05;;
49041;SDS011;34859;51.608;11.462;2023-11-21T04:24:48;9.93;;;5.45;;
49041;SDS011;34859;51.608;11.462;2023-11-21T04:27:33;8.73;;;5.70;;
49041;SDS011;34859;51.608;11.462;2023-11-21T04:30:18;13.80;;;6.45;;
49041;SDS011;34859;51.608;11.462;2023-11-21T04:33:02;14.10;;;6.13;;
49041;SDS011;34859;51.608;11.462;2023-11-21T04:35:46;17.37;;;6.47;;
49041;SDS011;34859;51.608;11.462;2023-11-21T04:38:32;9.00;;;6.70;;
49041;SDS011;34859;51.608;11.462;2023-11-21T04:41:16;13.20;;;5.97;;
49041;SDS011;34859;51.608;11.462;2023-11-21T04:44:01;19.33;;;6.55;;
49041;SDS011;34859;51.608;11.462;2023-11-21T04:46:43;11.65;;;5.60;;
49041;SDS011;34859;51.608;11.462;2023-11-21T04:49:27;11.93;;;5.43;;
49041;SDS011;34859;51.608;11.462;2023-11-21T04:52:11;13.55;;;6.03;;
49041;SDS011;34859;51.608;11.462;2023-11-21T04:54:55;11.37;;;5.50;;
49041;SDS011;34859;51.608;11.462;2023-11-21T04:57:41;16.55;;;6.22;;
49041;SDS011;34859;51.608;11.462;2023-11-21T05:00:26;18.02;;;7.28;;
49041;SDS011;34859;51.608;11.462;2023-11-21T05:03:10;9.23;;;5.80;;
49041;SDS011;34859;51.608;11.462;2023-11-21T05:05:55;13.95;;;5.93;;
49041;SDS011;34859;51.608;11.462;2023-11-21T05:08:39;6.95;;;4.95;;
49041;SDS011;34859;51.608;11.462;2023-11-21T05:11:27;16.13;;;6.00;;
49041;SDS011;34859;51.608;11.462;2023-11-21T05:14:12;10.20;;;5.45;;
49041;SDS011;34859;51.608;11.462;2023-11-21T05:19:43;11.65;;;5.35;;
49041;SDS011;34859;51.608;11.462;2023-11-21T05:22:30;15.07;;;6.72;;
49041;SDS011;34859;51.608;11.462;2023-11-21T05:25:15;15.57;;;5.50;;
49041;SDS011;34859;51.608;11.462;2023-11-21T05:28:01;13.55;;;5.20;;
49041;SDS011;34859;51.608;11.462;2023-11-21T05:30:46;10.07;;;5.38;;
49041;SDS011;34859;51.608;11.462;2023-11-21T05:33:30;14.82;;;5.50;;
49041;SDS011;34859;51.608;11.462;2023-11-21T05:36:16;15.00;;;5.85;;
49041;SDS011;34859;51.608;11.462;2023-11-21T05:39:01;7.15;;;5.40;;
49041;SDS011;34859;51.608;11.462;2023-11-21T05:41:47;14.00;;;6.53;;
49041;SDS011;34859;51.608;11.462;2023-11-21T05:44:31;10.03;;;5.17;;
49041;SDS011;34859;51.608;11.462;2023-11-21T05:47:15;8.45;;;5.63;;
49041;SDS011;34859;51.608;11.462;2023-11-21T05:49:59;12.70;;;6.10;;
49041;SDS011;34859;51.608;11.462;2023-11-21T05:52:44;13.05;;;6.28;;
49041;SDS011;34859;51.608;11.462;2023-11-21T05:55:30;12.60;;;6.28;;
49041;SDS011;34859;51.608;11.462;2023-11-21T05:58:15;10.10;;;5.50;;
49041;SDS011;34859;51.608;11.462;2023-11-21T06:00:59;18.83;;;6.38;;
49041;SDS011;34859;51.608;11.462;2023-11-21T06:03:43;24.17;;;7.65;;
49041;SDS011;34859;51.608;11.462;2023-11-21T06:06:29;11.13;;;5.80;;
49041;SDS011;34859;51.608;11.462;2023-11-21T06:09:15;14.68;;;5.97;;
49041;SDS011;34859;51.608;11.462;2023-11-21T06:11:59;12.80;;;5.90;;
49041;SDS011;34859;51.608;11.462;2023-11-21T06:14:43;11.02;;;6.15;;
49041;SDS011;34859;51.608;11.462;2023-11-21T06:17:27;14.30;;;7.15;;
49041;SDS011;34859;51.608;11.462;2023-11-21T06:20:12;11.50;;;7.05;;
49041;SDS011;34859;51.608;11.462;2023-11-21T06:22:59;15.68;;;8.13;;
49041;SDS011;34859;51.608;11.462;2023-11-21T06:25:47;17.88;;;7.85;;
49041;SDS011;34859;51.608;11.462;2023-11-21T06:28:31;16.83;;;8.43;;
49041;SDS011;34859;51.608;11.462;2023-11-21T06:31:15;30.08;;;13.20;;
49041;SDS011;34859;51.608;11.462;2023-11-21T06:34:00;28.88;;;13.68;;
49041;SDS011;34859;51.608;11.462;2023-11-21T06:36:44;35.13;;;13.38;;
49041;SDS011;34859;51.608;11.462;2023-11-21T06:39:28;33.42;;;13.43;;
49041;SDS011;34859;51.608;11.462;2023-11-21T06:42:12;28.87;;;13.17;;
49041;SDS011;34859;51.608;11.462;2023-11-21T06:44:53;33.60;;;14.05;;
49041;SDS011;34859;51.608;11.462;2023-11-21T06:47:40;35.50;;;14.60;;
49041;SDS011;34859;51.608;11.462;2023-11-21T06:50:24;31.10;;;13.63;;
49041;SDS011;34859;51.608;11.462;2023-11-21T06:53:08;26.80;;;13.48;;
49041;SDS011;34859;51.608;11.462;2023-11-21T06:55:53;26.20;;;12.40;;
49041;SDS011;34859;51.608;11.462;2023-11-21T06:58:37;24.83;;;12.40;;
49041;SDS011;34859;51.608;11.462;2023-11-21T07:01:21;30.48;;;11.40;;
49041;SDS011;34859;51.608;11.462;2023-11-21T07:04:05;24.05;;;11.75;;
49041;SDS011;34859;51.608;11.462;2023-11-21T07:09:35;33.57;;;14.30;;
49041;SDS011;34859;51.608;11.462;2023-11-21T07:12:19;35.45;;;14.38;;
49041;SDS011;34859;51.608;11.462;2023-11-21T07:15:07;37.30;;;13.73;;
49041;SDS011;34859;51.608;11.462;2023-11-21T07:17:52;28.55;;;13.30;;
49041;SDS011;34859;51.608;11.462;2023-11-21T07:23:22;26.27;;;12.85;;
49041;SDS011;34859;51.608;11.462;2023-11-21T07:26:06;32.40;;;15.17;;
49041;SDS011;34859;51.608;11.462;2023-11-21T07:28:53;35.30;;;15.15;;
49041;SDS011;34859;51.608;11.462;2023-11-21T07:31:37;29.23;;;14.50;;
49041;SDS011;34859;51.608;11.462;2023-11-21T07:34:21;25.20;;;13.50;;
49041;SDS011;34859;51.608;11.462;2023-11-21T07:37:05;22.10;;;12.00;;
49041;SDS011;34859;51.608;11.462;2023-11-21T07:39:50;21.38;;;12.07;;
49041;SDS011;34859;51.608;11.462;2023-11-21T07:42:39;17.08;;;10.00;;
49041;SDS011;34859;51.608;11.462;2023-11-21T07:45:23;17.02;;;10.65;;
49041;SDS011;34859;51.608;11.462;2023-11-21T07:48:07;16.63;;;9.93;;
49041;SDS011;34859;51.608;11.462;2023-11-21T07:50:51;10.83;;;7.17;;
49041;SDS011;34859;51.608;11.462;2023-11-21T07:53:32;6.72;;;5.85;;
49041;SDS011;34859;51.608;11.462;2023-11-21T07:56:17;7.07;;;6.00;;
49041;SDS011;34859;51.608;11.462;2023-11-21T07:59:01;7.22;;;6.20;;
49041;SDS011;34859;51.608;11.462;2023-11-21T08:01:45;8.37;;;5.83;;
49041;SDS011;34859;51.608;11.462;2023-11-21T08:04:29;7.63;;;6.28;;
49041;SDS011;34859;51.608;11.462;2023-11-21T08:07:16;11.00;;;7.53;;
49041;SDS011;34859;51.608;11.462;2023-11-21T08:10:01;12.70;;;8.60;;
49041;SDS011;34859;51.608;11.462;2023-11-21T08:12:46;12.10;;;9.02;;
49041;SDS011;34859;51.608;11.462;2023-11-21T08:15:32;17.27;;;9.90;;
49041;SDS011;34859;51.608;11.462;2023-11-21T08:18:16;16.55;;;10.57;;
49041;SDS011;34859;51.608;11.462;2023-11-21T08:20:58;15.30;;;10.75;;
49041;SDS011;34859;51.608;11.462;2023-11-21T08:23:42;20.43;;;11.17;;
49041;SDS011;34859;51.608;11.462;2023-11-21T08:26:26;22.73;;;10.93;;
49041;SDS011;34859;51.608;11.462;2023-11-21T08:31:55;17.75;;;11.05;;
49041;SDS011;34859;51.608;11.462;2023-11-21T08:34:40;15.80;;;11.07;;
49041;SDS011;34859;51.608;11.462;2023-11-21T08:37:26;20.67;;;10.75;;
49041;SDS011;34859;51.608;11.462;2023-11-21T08:40:11;19.30;;;10.13;;
49041;SDS011;34859;51.608;11.462;2023-11-21T08:42:59;23.33;;;10.73;;
49041;SDS011;34859;51.608;11.462;2023-11-21T08:45:44;19.83;;;11.47;;
49041;SDS011;34859;51.608;11.462;2023-11-21T08:48:28;18.75;;;11.63;;
49041;SDS011;34859;51.608;11.462;2023-11-21T08:51:13;18.77;;;10.77;;
49041;SDS011;34859;51.608;11.462;2023-11-21T08:53:57;14.50;;;9.77;;
49041;SDS011;34859;51.608;11.462;2023-11-21T08:56:44;17.63;;;10.40;;
49041;SDS011;34859;51.608;11.462;2023-11-21T08:59:29;17.25;;;10.90;;
49041;SDS011;34859;51.608;11.462;2023-11-21T09:02:13;19.52;;;12.18;;
49041;SDS011;34859;51.608;11.462;2023-11-21T09:04:57;22.15;;;12.95;;
49041;SDS011;34859;51.608;11.462;2023-11-21T09:10:10;16.30;;;10.73;;
49041;SDS011;34859;51.608;11.462;2023-11-21T09:12:55;12.55;;;9.30;;
49041;SDS011;34859;51.608;11.462;2023-11-21T09:15:39;15.65;;;10.45;;
49041;SDS011;34859;51.608;11.462;2023-11-21T09:18:24;23.23;;;10.85;;
49041;SDS011;34859;51.608;11.462;2023-11-21T09:21:09;23.35;;;12.50;;
49041;SDS011;34859;51.608;11.462;2023-11-21T09:23:53;18.73;;;12.07;;
49041;SDS011;34859;51.608;11.462;2023-11-21T09:26:37;22.90;;;13.00;;
49041;SDS011;34859;51.608;11.462;2023-11-21T09:29:22;21.67;;;12.75;;
49041;SDS011;34859;51.608;11.462;2023-11-21T21:09:36;6.38;;;4.43;;
49041;SDS011;34859;51.608;11.462;2023-11-21T21:12:21;4.75;;;4.25;;
49041;SDS011;34859;51.608;11.462;2023-11-21T21:15:05;7.53;;;4.47;;
49041;SDS011;34859;51.608;11.462;2023-11-21T21:17:50;5.68;;;4.78;;
49041;SDS011;34859;51.608;11.462;2023-11-21T21:20:34;5.17;;;4.43;;
49041;SDS011;34859;51.608;11.462;2023-11-21T21:26:04;5.07;;;4.17;;
49041;SDS011;34859;51.608;11.462;2023-11-21T21:28:51;5.80;;;5.15;;
49041;SDS011;34859;51.608;11.462;2023-11-21T21:31:35;6.93;;;4.95;;
49041;SDS011;34859;51.608;11.462;2023-11-21T21:34:20;5.20;;;4.40;;
49041;SDS011;34859;51.608;11.462;2023-11-21T21:37:04;5.57;;;4.67;;
49041;SDS011;34859;51.608;11.462;2023-11-21T21:39:49;6.18;;;4.70;;
49041;SDS011;34859;51.608;11.462;2023-11-21T21:42:34;6.85;;;4.93;;
49041;SDS011;34859;51.608;11.462;2023-11-21T21:45:19;4.38;;;4.03;;
49041;SDS011;34859;51.608;11.462;2023-11-21T21:48:03;6.45;;;5.00;;
49041;SDS011;34859;51.608;11.462;2023-11-21T21:50:47;8.05;;;4.75;;
49041;SDS011;34859;51.608;11.462;2023-11-21T21:56:20;5.45;;;4.47;;
49041;SDS011;34859;51.608;11.462;2023-11-21T21:59:04;5.00;;;4.60;;
49041;SDS011;34859;51.608;11.462;2023-11-21T22:01:50;6.47;;;4.72;;
49041;SDS011;34859;51.608;11.462;2023-11-21T22:04:36;7.25;;;4.85;;
49041;SDS011;34859;51.608;11.462;2023-11-21T22:07:23;6.45;;;5.43;;
49041;SDS011;34859;51.608;11.462;2023-11-21T22:10:07;4.95;;;4.43;;
49041;SDS011;34859;51.608;11.462;2023-11-21T22:12:52;6.18;;;5.18;;
49041;SDS011;34859;51.608;11.462;2023-11-21T22:18:22;6.45;;;4.82;;
49041;SDS011;34859;51.608;11.462;2023-11-21T22:21:06;6.05;;;4.90;;
49041;SDS011;34859;51.608;11.462;2023-11-21T22:23:50;6.38;;;4.95;;
49041;SDS011;34859;51.608;11.462;2023-11-21T22:26:35;6.18;;;4.50;;
49041;SDS011;34859;51.608;11.462;2023-11-21T22:29:21;6.30;;;5.60;;
49041;SDS011;34859;51.608;11.462;2023-11-21T22:32:05;6.07;;;5.47;;
49041;SDS011;34859;51.608;11.462;2023-11-21T22:34:49;9.48;;;5.35;;
49041;SDS011;34859;51.608;11.462;2023-11-21T22:37:33;10.37;;;5.67;;
49041;SDS011;34859;51.608;11.462;2023-11-21T22:40:17;7.18;;;5.57;;
49041;SDS011;34859;51.608;11.462;2023-11-21T22:43:02;8.43;;;5.68;;
49041;SDS011;34859;51.608;11.462;2023-11-21T22:45:48;6.78;;;5.22;;
49041;SDS011;34859;51.608;11.462;2023-11-21T22:48:32;7.35;;;5.20;;
49041;SDS011;34859;51.608;11.462;2023-11-21T22:51:16;9.15;;;6.20;;
49041;SDS011;34859;51.608;11.462;2023-11-21T22:54:03;6.88;;;5.00;;
49041;SDS011;34859;51.608;11.462;2023-11-21T22:56:48;6.05;;;5.45;;
49041;SDS011;34859;51.608;11.462;2023-11-21T22:59:34;6.57;;;5.43;;
49041;SDS011;34859;51.608;11.462;2023-11-21T23:02:19;8.88;;;5.50;;
49041;SDS011;34859;51.608;11.462;2023-11-21T23:05:04;8.18;;;5.60;;
49041;SDS011;34859;51.608;11.462;2023-11-21T23:07:50;7.28;;;5.80;;
49041;SDS011;34859;51.608;11.462;2023-11-21T23:10:35;8.10;;;6.38;;
49041;SDS011;34859;51.608;11.462;2023-11-21T23:13:19;9.48;;;6.18;;
49041;SDS011;34859;51.608;11.462;2023-11-21T23:16:03;7.78;;;5.53;;
49041;SDS011;34859;51.608;11.462;2023-11-21T23:18:48;8.93;;;5.95;;
49041;SDS011;34859;51.608;11.462;2023-11-21T23:21:34;8.02;;;5.55;;
49041;SDS011;34859;51.608;11.462;2023-11-21T23:24:18;8.32;;;6.18;;
49041;SDS011;34859;51.608;11.462;2023-11-21T23:27:00;6.20;;;5.65;;
49041;SDS011;34859;51.608;11.462;2023-11-21T23:29:44;6.20;;;5.18;;
49041;SDS011;34859;51.608;11.462;2023-11-21T23:32:33;8.73;;;5.57;;
49041;SDS011;34859;51.608;11.462;2023-11-21T23:35:17;6.73;;;6.13;;
49041;SDS011;34859;51.608;11.462;2023-11-21T23:38:02;8.23;;;5.87;;
49041;SDS011;34859;51.608;11.462;2023-11-21T23:40:43;5.93;;;5.07;;
49041;SDS011;34859;51.608;11.462;2023-11-21T23:46:12;6.63;;;5.28;;
49041;SDS011;34859;51.608;11.462;2023-11-21T23:48:56;8.40;;;5.80;;
49041;SDS011;34859;51.608;11.462;2023-11-21T23:51:40;11.23;;;5.77;;
49041;SDS011;34859;51.608;11.462;2023-11-21T23:54:24;7.30;;;5.83;;
49041;SDS011;34859;51.608;11.462;2023-11-21T23:57:08;5.97;;;5.38;;
49041;SDS011;34859;51.608;11.462;2023-11-21T23:59:52;8.37;;;6.00;;
